PWSweather.com
Personal Weather Stations
Station Observations
INORDPAS37
Bondues, BonduesFR 59910

BonduesBonduesFR 59910

Lat: 50.7, Lon: 3.09

Elevation: 102

Station Type: Netatmo

http://bondues.meteoamikuze.com

High Low Average
Temperature 46.2°F7.9°C 34.0°F1.1°C 40.6°F4.8°C
Dew Point 34.0°F1.1°C 23.2°F-4.9°C 28.9°F-1.7°C
Winds 11.2 mph 18.0 kmh 2.5 mph 4.0 kmh 5.0 mph WSW8.0 kmh WSW
Wind Gusts 27.3 mph43.9 kmh 4.3 mph6.9 kmh 13.0 mph20.9 kmh
Humidity 77% 58% 68%
Pressure 29.83 in1010.2 mb 29.54 in1000.3 mb -
Precipitation 0.05 in1.3 mm - -
Hour Temp Dew Point Humidity Winds Wind Gusts Pressure Precip Precip Rate Daily Precip Total
12:03 AM 37.0°F2.8°C 27.7°F-2.4°C 74% 6.9 mph SSW11.1 kmh SSW 17.4 mph28.0 kmh 29.71 in1006.1 mb 0.00 in0.0 mm 0.00 in0.0 mm 0.00 in0.0 mm
12:23 AM 37.0°F2.8°C 27.7°F-2.4°C 74% 4.3 mph SSW6.9 kmh SSW 11.2 mph18.0 kmh 29.70 in1005.8 mb 0.00 in0.0 mm 0.00 in0.0 mm 0.00 in0.0 mm
12:44 AM 37.2°F2.9°C 27.9°F-2.3°C 74% 4.9 mph SW7.9 kmh SW 15.0 mph24.1 kmh 29.68 in1005.1 mb 0.00 in0.0 mm 0.00 in0.0 mm 0.00 in0.0 mm
01:04 AM 37.2°F2.9°C 27.9°F-2.3°C 74% 5.6 mph SSW9.0 kmh SSW 12.5 mph20.1 kmh 29.66 in1004.4 mb 0.00 in0.0 mm 0.01 in0.3 mm 0.00 in0.0 mm
01:24 AM 37.4°F3.0°C 27.9°F-2.3°C 74% 4.9 mph SW7.9 kmh SW 13.6 mph21.9 kmh 29.65 in1004.1 mb 0.01 in0.3 mm 0.01 in0.3 mm 0.01 in0.3 mm
01:43 AM 37.4°F3.0°C 27.9°F-2.3°C 74% 5.6 mph SW9.0 kmh SW 16.1 mph25.9 kmh 29.64 in1003.7 mb 0.01 in0.3 mm 0.01 in0.3 mm 0.01 in0.3 mm
02:05 AM 37.6°F3.1°C 28.4°F-2.0°C 75% 4.9 mph SW7.9 kmh SW 21.0 mph33.8 kmh 29.62 in1003.0 mb 0.01 in0.3 mm 0.00 in0.0 mm 0.02 in0.5 mm
02:25 AM 37.8°F3.2°C 28.6°F-1.9°C 75% 4.9 mph SSW7.9 kmh SSW 11.2 mph18.0 kmh 29.60 in1002.4 mb 0.01 in0.3 mm 0.00 in0.0 mm 0.02 in0.5 mm
02:45 AM 38.1°F3.4°C 28.9°F-1.7°C 75% 5.6 mph SW9.0 kmh SW 16.8 mph27.0 kmh 29.59 in1002.0 mb 0.00 in0.0 mm 0.00 in0.0 mm 0.02 in0.5 mm
03:05 AM 38.3°F3.5°C 29.1°F-1.6°C 75% 5.6 mph SW9.0 kmh SW 14.3 mph23.0 kmh 29.58 in1001.7 mb 0.00 in0.0 mm 0.00 in0.0 mm 0.02 in0.5 mm
03:26 AM 38.5°F3.6°C 29.7°F-1.3°C 76% 7.4 mph SW11.9 kmh SW 17.4 mph28.0 kmh 29.57 in1001.4 mb 0.00 in0.0 mm 0.00 in0.0 mm 0.02 in0.5 mm
03:46 AM 38.8°F3.8°C 30.0°F-1.1°C 76% 6.9 mph SW11.1 kmh SW 16.8 mph27.0 kmh 29.56 in1001.0 mb 0.00 in0.0 mm 0.00 in0.0 mm 0.02 in0.5 mm
04:06 AM 39.2°F4.0°C 30.4°F-0.9°C 76% 7.4 mph SW11.9 kmh SW 23.0 mph37.0 kmh 29.55 in1000.7 mb 0.00 in0.0 mm 0.01 in0.3 mm 0.02 in0.5 mm
04:26 AM 39.7°F4.3°C 30.9°F-0.6°C 76% 11.2 mph SW18.0 kmh SW 26.6 mph42.8 kmh 29.54 in1000.3 mb 0.01 in0.3 mm 0.01 in0.3 mm 0.02 in0.5 mm
04:49 AM 40.1°F4.5°C 31.6°F-0.2°C 77% 10.5 mph SW16.9 kmh SW 26.2 mph42.2 kmh 29.55 in1000.7 mb 0.01 in0.3 mm 0.00 in0.0 mm 0.02 in0.5 mm
05:02 AM 40.3°F4.6°C 31.5°F-0.3°C 76% 9.4 mph SW15.1 kmh SW 25.5 mph41.0 kmh 29.54 in1000.3 mb 0.00 in0.0 mm 0.00 in0.0 mm 0.02 in0.5 mm
05:21 AM 40.6°F4.8°C 32.2°F0.1°C 77% 8.1 mph WSW13.0 kmh WSW 23.7 mph38.1 kmh 29.54 in1000.3 mb 0.00 in0.0 mm 0.00 in0.0 mm 0.03 in0.8 mm
05:42 AM 41.0°F5.0°C 32.5°F0.3°C 77% 8.7 mph SW14.0 kmh SW 21.0 mph33.8 kmh 29.54 in1000.3 mb 0.00 in0.0 mm 0.00 in0.0 mm 0.03 in0.8 mm
06:01 AM 41.4°F5.2°C 32.9°F0.5°C 77% 8.7 mph WSW14.0 kmh WSW 18.1 mph29.1 kmh 29.54 in1000.3 mb 0.00 in0.0 mm 0.00 in0.0 mm 0.03 in0.8 mm
06:22 AM 41.7°F5.4°C 33.3°F0.7°C 77% 9.4 mph SW15.1 kmh SW 19.9 mph32.0 kmh 29.54 in1000.3 mb 0.00 in0.0 mm 0.00 in0.0 mm 0.03 in0.8 mm
06:48 AM 42.1°F5.6°C 33.6°F0.9°C 77% 9.4 mph WSW15.1 kmh WSW 26.2 mph42.2 kmh 29.56 in1001.0 mb 0.00 in0.0 mm 0.00 in0.0 mm 0.03 in0.8 mm
07:04 AM 42.4°F5.8°C 34.0°F1.1°C 77% 9.4 mph WSW15.1 kmh WSW 27.3 mph43.9 kmh 29.56 in1001.0 mb 0.00 in0.0 mm 0.00 in0.0 mm 0.03 in0.8 mm
07:23 AM 42.4°F5.8°C 34.0°F1.1°C 77% 9.4 mph WSW15.1 kmh WSW 23.7 mph38.1 kmh 29.57 in1001.4 mb 0.00 in0.0 mm 0.00 in0.0 mm 0.03 in0.8 mm
07:43 AM 42.1°F5.6°C 32.9°F0.5°C 75% 9.8 mph WSW15.8 kmh WSW 21.0 mph33.8 kmh 29.58 in1001.7 mb 0.00 in0.0 mm 0.00 in0.0 mm 0.03 in0.8 mm
08:04 AM 41.5°F5.3°C 32.0°F0.0°C 74% 8.7 mph WSW14.0 kmh WSW 18.6 mph29.9 kmh 29.59 in1002.0 mb 0.00 in0.0 mm 0.00 in0.0 mm 0.03 in0.8 mm
08:24 AM 41.2°F5.1°C 31.3°F-0.4°C 73% 4.9 mph W7.9 kmh W 8.7 mph14.0 kmh 29.59 in1002.0 mb 0.00 in0.0 mm 0.00 in0.0 mm 0.03 in0.8 mm
08:44 AM 40.8°F4.9°C 30.9°F-0.6°C 73% 4.3 mph WSW6.9 kmh WSW 9.4 mph15.1 kmh 29.60 in1002.4 mb 0.00 in0.0 mm 0.00 in0.0 mm 0.03 in0.8 mm
09:04 AM 40.6°F4.8°C 30.4°F-0.9°C 72% 4.9 mph WSW7.9 kmh WSW 12.5 mph20.1 kmh 29.60 in1002.4 mb 0.00 in0.0 mm 0.00 in0.0 mm 0.03 in0.8 mm
09:24 AM 41.2°F5.1°C 30.6°F-0.8°C 71% 5.6 mph WSW9.0 kmh WSW 12.5 mph20.1 kmh 29.61 in1002.7 mb 0.00 in0.0 mm 0.00 in0.0 mm 0.03 in0.8 mm
09:44 AM 41.9°F5.5°C 31.1°F-0.5°C 71% 4.3 mph WSW6.9 kmh WSW 11.9 mph19.2 kmh 29.62 in1003.0 mb 0.00 in0.0 mm 0.00 in0.0 mm 0.03 in0.8 mm
10:05 AM 43.0°F6.1°C 32.2°F0.1°C 71% 4.9 mph W7.9 kmh W 15.0 mph24.1 kmh 29.63 in1003.4 mb 0.00 in0.0 mm 0.00 in0.0 mm 0.03 in0.8 mm
10:25 AM 43.7°F6.5°C 32.2°F0.1°C 69% 5.6 mph W9.0 kmh W 10.5 mph16.9 kmh 29.64 in1003.7 mb 0.00 in0.0 mm 0.00 in0.0 mm 0.03 in0.8 mm
10:45 AM 44.2°F6.8°C 32.4°F0.2°C 68% 4.9 mph W7.9 kmh W 12.5 mph20.1 kmh 29.64 in1003.7 mb 0.00 in0.0 mm 0.00 in0.0 mm 0.03 in0.8 mm
11:05 AM 44.6°F7.0°C 32.7°F0.4°C 68% 4.3 mph W6.9 kmh W 13.0 mph20.9 kmh 29.64 in1003.7 mb 0.00 in0.0 mm 0.00 in0.0 mm 0.03 in0.8 mm
11:25 AM 44.4°F6.9°C 31.6°F-0.2°C 66% 4.9 mph W7.9 kmh W 11.2 mph18.0 kmh 29.65 in1004.1 mb 0.00 in0.0 mm 0.00 in0.0 mm 0.03 in0.8 mm
11:46 AM 44.8°F7.1°C 31.6°F-0.2°C 65% 4.9 mph W7.9 kmh W 12.5 mph20.1 kmh 29.65 in1004.1 mb 0.00 in0.0 mm 0.00 in0.0 mm 0.03 in0.8 mm
12:15 PM 45.0°F7.2°C 31.5°F-0.3°C 64% 5.6 mph W9.0 kmh W 16.8 mph27.0 kmh 29.66 in1004.4 mb 0.00 in0.0 mm 0.00 in0.0 mm 0.03 in0.8 mm
12:21 PM 44.8°F7.1°C 31.3°F-0.4°C 64% 4.3 mph WSW6.9 kmh WSW 9.8 mph15.8 kmh 29.65 in1004.1 mb 0.00 in0.0 mm 0.00 in0.0 mm 0.03 in0.8 mm
12:48 PM 46.2°F7.9°C 32.4°F0.2°C 63% 4.9 mph W7.9 kmh W 19.9 mph32.0 kmh 29.66 in1004.4 mb 0.00 in0.0 mm 0.00 in0.0 mm 0.03 in0.8 mm
01:08 PM 45.7°F7.6°C 31.1°F-0.5°C 61% 5.6 mph W9.0 kmh W 13.0 mph20.9 kmh 29.66 in1004.4 mb 0.00 in0.0 mm 0.00 in0.0 mm 0.03 in0.8 mm
01:28 PM 45.7°F7.6°C 30.6°F-0.8°C 60% 5.6 mph W9.0 kmh W 12.5 mph20.1 kmh 29.66 in1004.4 mb 0.00 in0.0 mm 0.00 in0.0 mm 0.03 in0.8 mm
01:48 PM 45.7°F7.6°C 30.6°F-0.8°C 60% 4.3 mph WSW6.9 kmh WSW 10.5 mph16.9 kmh 29.66 in1004.4 mb 0.00 in0.0 mm 0.00 in0.0 mm 0.03 in0.8 mm
02:08 PM 45.1°F7.3°C 29.7°F-1.3°C 59% 5.6 mph W9.0 kmh W 12.5 mph20.1 kmh 29.66 in1004.4 mb 0.00 in0.0 mm 0.00 in0.0 mm 0.03 in0.8 mm
02:29 PM 44.8°F7.1°C 28.9°F-1.7°C 58% 6.9 mph W11.1 kmh W 13.0 mph20.9 kmh 29.67 in1004.7 mb 0.00 in0.0 mm 0.00 in0.0 mm 0.03 in0.8 mm
02:49 PM 44.4°F6.9°C 28.8°F-1.8°C 58% 4.9 mph W7.9 kmh W 9.8 mph15.8 kmh 29.67 in1004.7 mb 0.00 in0.0 mm 0.00 in0.0 mm 0.03 in0.8 mm
03:09 PM 45.0°F7.2°C 29.1°F-1.6°C 58% 4.9 mph W7.9 kmh W 9.8 mph15.8 kmh 29.67 in1004.7 mb 0.00 in0.0 mm 0.00 in0.0 mm 0.03 in0.8 mm
03:29 PM 44.6°F7.0°C 28.9°F-1.7°C 58% 3.8 mph W6.1 kmh W 7.4 mph11.9 kmh 29.67 in1004.7 mb 0.00 in0.0 mm 0.00 in0.0 mm 0.03 in0.8 mm
03:55 PM 44.4°F6.9°C 28.8°F-1.8°C 58% 3.8 mph W6.1 kmh W 12.5 mph20.1 kmh 29.68 in1005.1 mb 0.00 in0.0 mm 0.00 in0.0 mm 0.03 in0.8 mm
04:15 PM 43.7°F6.5°C 28.0°F-2.2°C 58% 3.8 mph W6.1 kmh W 9.8 mph15.8 kmh 29.68 in1005.1 mb 0.00 in0.0 mm 0.00 in0.0 mm 0.03 in0.8 mm
04:25 PM 43.5°F6.4°C 27.9°F-2.3°C 58% 4.9 mph WSW7.9 kmh WSW 13.0 mph20.9 kmh 29.68 in1005.1 mb 0.00 in0.0 mm 0.00 in0.0 mm 0.03 in0.8 mm
04:45 PM 43.5°F6.4°C 27.9°F-2.3°C 58% 5.6 mph W9.0 kmh W 12.5 mph20.1 kmh 29.67 in1004.7 mb 0.00 in0.0 mm 0.00 in0.0 mm 0.03 in0.8 mm
05:05 PM 43.7°F6.5°C 28.0°F-2.2°C 58% 4.3 mph WSW6.9 kmh WSW 10.5 mph16.9 kmh 29.68 in1005.1 mb 0.00 in0.0 mm 0.00 in0.0 mm 0.03 in0.8 mm
05:25 PM 43.5°F6.4°C 28.2°F-2.1°C 59% 4.9 mph WSW7.9 kmh WSW 10.5 mph16.9 kmh 29.68 in1005.1 mb 0.00 in0.0 mm 0.00 in0.0 mm 0.03 in0.8 mm
05:45 PM 42.8°F6.0°C 27.5°F-2.5°C 59% 4.3 mph W6.9 kmh W 9.4 mph15.1 kmh 29.69 in1005.4 mb 0.00 in0.0 mm 0.00 in0.0 mm 0.03 in0.8 mm
06:03 PM 42.3°F5.7°C 27.3°F-2.6°C 60% 4.3 mph WSW6.9 kmh WSW 8.7 mph14.0 kmh 29.70 in1005.8 mb 0.00 in0.0 mm 0.00 in0.0 mm 0.03 in0.8 mm
06:35 PM 41.9°F5.5°C 27.5°F-2.5°C 61% 3.8 mph WNW6.1 kmh WNW 8.7 mph14.0 kmh 29.70 in1005.8 mb 0.00 in0.0 mm 0.00 in0.0 mm 0.03 in0.8 mm
06:43 PM 39.9°F4.4°C 25.9°F-3.4°C 62% 2.5 mph W4.0 kmh W 5.6 mph9.0 kmh 29.72 in1006.4 mb 0.00 in0.0 mm 0.00 in0.0 mm 0.03 in0.8 mm
07:09 PM 38.5°F3.6°C 25.3°F-3.7°C 64% 3.8 mph W6.1 kmh W 8.7 mph14.0 kmh 29.74 in1007.1 mb 0.00 in0.0 mm 0.00 in0.0 mm 0.03 in0.8 mm
07:29 PM 37.4°F3.0°C 24.6°F-4.1°C 65% 3.1 mph W5.0 kmh W 8.1 mph13.0 kmh 29.74 in1007.1 mb 0.01 in0.3 mm 0.04 in1.0 mm 0.04 in1.0 mm
07:55 PM 36.9°F2.7°C 24.1°F-4.4°C 65% 2.5 mph W4.0 kmh W 5.6 mph9.0 kmh 29.74 in1007.1 mb 0.01 in0.3 mm 0.00 in0.0 mm 0.04 in1.0 mm
08:09 PM 36.1°F2.3°C 23.5°F-4.7°C 65% 2.5 mph WSW4.0 kmh WSW 4.3 mph6.9 kmh 29.75 in1007.5 mb 0.02 in0.5 mm 0.01 in0.3 mm 0.04 in1.0 mm
08:28 PM 36.3°F2.4°C 24.4°F-4.2°C 67% 5.6 mph W9.0 kmh W 13.6 mph21.9 kmh 29.78 in1008.5 mb 0.01 in0.3 mm 0.00 in0.0 mm 0.05 in1.3 mm
08:47 PM 36.7°F2.6°C 25.0°F-3.9°C 68% 4.9 mph W7.9 kmh W 9.4 mph15.1 kmh 29.78 in1008.5 mb 0.00 in0.0 mm 0.00 in0.0 mm 0.05 in1.3 mm
09:05 PM 36.5°F2.5°C 25.0°F-3.9°C 68% 3.1 mph WSW5.0 kmh WSW 6.9 mph11.1 kmh 29.79 in1008.8 mb 0.00 in0.0 mm 0.00 in0.0 mm 0.05 in1.3 mm
09:35 PM 36.3°F2.4°C 24.8°F-4.0°C 68% 3.8 mph W6.1 kmh W 9.4 mph15.1 kmh 29.79 in1008.8 mb 0.00 in0.0 mm 0.00 in0.0 mm 0.05 in1.3 mm
09:55 PM 36.0°F2.2°C 24.4°F-4.2°C 68% 3.1 mph W5.0 kmh W 5.6 mph9.0 kmh 29.79 in1008.8 mb 0.00 in0.0 mm 0.00 in0.0 mm 0.05 in1.3 mm
10:15 PM 35.4°F1.9°C 24.3°F-4.3°C 69% 3.1 mph W5.0 kmh W 7.4 mph11.9 kmh 29.80 in1009.1 mb 0.00 in0.0 mm 0.00 in0.0 mm 0.05 in1.3 mm
10:35 PM 35.1°F1.7°C 23.9°F-4.5°C 69% 2.5 mph W4.0 kmh W 5.6 mph9.0 kmh 29.81 in1009.5 mb 0.00 in0.0 mm 0.00 in0.0 mm 0.05 in1.3 mm
10:55 PM 34.7°F1.5°C 23.5°F-4.7°C 69% 2.5 mph WSW4.0 kmh WSW 4.9 mph7.9 kmh 29.82 in1009.8 mb 0.00 in0.0 mm 0.00 in0.0 mm 0.05 in1.3 mm
11:01 PM 34.3°F1.3°C 23.2°F-4.9°C 69% 3.1 mph W5.0 kmh W 8.7 mph14.0 kmh 29.82 in1009.8 mb 0.00 in0.0 mm 0.00 in0.0 mm 0.05 in1.3 mm
11:29 PM 34.3°F1.3°C 23.5°F-4.7°C 70% 3.1 mph WSW5.0 kmh WSW 6.9 mph11.1 kmh 29.83 in1010.2 mb 0.00 in0.0 mm 0.00 in0.0 mm 0.05 in1.3 mm
11:49 PM 34.0°F1.1°C 23.2°F-4.9°C 70% 3.1 mph WSW5.0 kmh WSW 8.1 mph13.0 kmh 29.83 in1010.2 mb 0.00 in0.0 mm 0.00 in0.0 mm 0.05 in1.3 mm